Terminal Aerodrome Forecast
Issued by NWS Huntsville, AL

Home | Current Version | Previous Version | Text Only | Print | Product List | Glossary On
Versions: 1 2 3 4 5 6 7 8 9 10 11 12 13 14
000
FTUS44 KHUN 191730
TAFHSV
TAF
KHSV 191730Z 1918/2018 13006KT 6SM -SHRA BR SCT020 OVC050
     FM192000 16006KT 5SM -SHRA BR BKN020
      TEMPO 1921/2001 2SM TSRA BR BKN007 OVC015CB
     FM200100 18007KT 4SM -RA OVC009
     FM200800 20005KT 2SM BR OVC006
     FM201400 20007KT 6SM BR OVC009=

USA.gov is the U.S. government's official web portal to all federal, state and local government web resources and services.